Time;durP1;ratioP1;P1;durP2;ratioP2;P2;SDS_P1;SDS_P2;PMS_P1;PMS_P2;Temp;Humidity;BMP_temperature;BMP_pressure;BME280_temperature;BME280_humidity;BME280_pressure;Samples;Min_cycle;Max_cycle;Signal;HPM_P1;HPM_P2
2021/07/23 00:00:52;;;;;;;6.75;3.80;;;23.90;53.10;;;;;;4882527;29;20036;-61
2021/07/23 00:03:18;;;;;;;6.10;3.10;;;23.90;53.20;;;;;;4882195;29;20072;-60
2021/07/23 00:05:44;;;;;;;5.70;3.42;;;23.90;53.20;;;;;;4882435;29;20048;-61
2021/07/23 00:08:10;;;;;;;5.78;3.58;;;23.80;53.30;;;;;;4882191;29;20025;-61
2021/07/23 00:10:35;;;;;;;5.63;3.25;;;23.80;53.30;;;;;;4882414;29;20029;-60
2021/07/23 00:13:01;;;;;;;6.35;3.60;;;23.80;53.30;;;;;;4882078;29;20037;-61
2021/07/23 00:15:26;;;;;;;8.13;4.18;;;23.80;53.30;;;;;;4880994;29;20077;-60
2021/07/23 00:17:52;;;;;;;6.38;3.75;;;23.80;53.20;;;;;;4881947;29;20040;-60
2021/07/23 00:20:17;;;;;;;7.63;3.40;;;23.70;53.30;;;;;;4882167;29;20032;-61
2021/07/23 00:22:43;;;;;;;6.88;3.90;;;23.80;53.20;;;;;;4882070;29;20599;-60
2021/07/23 00:25:09;;;;;;;5.28;3.05;;;23.70;53.30;;;;;;4882028;29;20029;-61
2021/07/23 00:27:35;;;;;;;5.28;3.22;;;23.80;53.30;;;;;;4881985;29;20029;-60
2021/07/23 00:30:00;;;;;;;5.60;3.13;;;23.80;53.30;;;;;;4881990;29;20497;-60
2021/07/23 00:32:26;;;;;;;7.72;3.80;;;23.70;53.30;;;;;;4881700;29;20390;-61
2021/07/23 00:34:52;;;;;;;6.20;3.30;;;23.80;53.30;;;;;;4882051;29;20416;-61
2021/07/23 00:37:17;;;;;;;4.50;2.88;;;23.70;53.30;;;;;;4882113;29;20476;-60
2021/07/23 00:39:43;;;;;;;5.43;3.38;;;23.70;53.30;;;;;;4881873;29;20021;-60
2021/07/23 00:42:08;;;;;;;5.63;2.92;;;23.70;53.30;;;;;;4881761;29;20068;-60
2021/07/23 00:44:35;;;;;;;5.85;3.45;;;23.70;53.40;;;;;;4881804;29;20418;-60
2021/07/23 00:47:01;;;;;;;5.80;3.28;;;23.70;53.40;;;;;;4882156;29;20096;-61
2021/07/23 00:49:26;;;;;;;6.60;3.13;;;23.70;53.40;;;;;;4881820;29;20043;-61
2021/07/23 00:51:52;;;;;;;5.75;3.63;;;23.60;53.40;;;;;;4881528;29;20119;-60
2021/07/23 00:54:19;;;;;;;6.53;3.15;;;23.70;53.40;;;;;;4881432;29;20029;-60
2021/07/23 00:56:45;;;;;;;5.50;3.38;;;23.60;53.40;;;;;;4881391;29;20036;-60
2021/07/23 00:59:11;;;;;;;5.63;3.40;;;23.70;53.40;;;;;;4881441;29;20032;-61
2021/07/23 01:01:37;;;;;;;6.40;3.47;;;23.60;53.40;;;;;;4880526;29;20104;-61
2021/07/23 01:04:03;;;;;;;5.57;3.25;;;23.60;53.40;;;;;;4881142;29;20144;-60
2021/07/23 01:06:29;;;;;;;5.20;3.03;;;23.60;53.50;;;;;;4881518;29;20466;-61
2021/07/23 01:08:55;;;;;;;7.07;4.00;;;23.60;53.50;;;;;;4881181;29;20370;-61
2021/07/23 01:11:25;;;;;;;5.78;3.15;;;23.50;53.60;;;;;;4879952;29;20044;-61
2021/07/23 01:13:50;;;;;;;5.72;3.22;;;23.60;53.50;;;;;;4881046;29;20518;-62
2021/07/23 01:16:16;;;;;;;6.07;3.50;;;23.50;53.60;;;;;;4881020;29;20037;-61
2021/07/23 01:18:42;;;;;;;6.00;3.05;;;23.50;53.60;;;;;;4881414;29;20025;-61
2021/07/23 01:21:08;;;;;;;7.97;4.05;;;23.50;53.60;;;;;;4881032;29;20028;-61
2021/07/23 01:23:36;;;;;;;6.75;3.85;;;23.50;53.70;;;;;;4881001;29;20056;-61
2021/07/23 01:26:03;;;;;;;5.22;2.97;;;23.50;53.70;;;;;;4880981;29;20033;-61
2021/07/23 01:28:32;;;;;;;5.93;3.60;;;23.50;53.60;;;;;;4880756;29;20495;-62
2021/07/23 01:30:58;;;;;;;5.72;3.33;;;23.40;53.70;;;;;;4880733;29;20044;-60
2021/07/23 01:33:25;;;;;;;6.53;3.35;;;23.50;53.70;;;;;;4880972;29;20044;-60
2021/07/23 01:35:51;;;;;;;5.20;2.97;;;23.50;53.80;;;;;;4880765;29;20067;-60
2021/07/23 01:38:19;;;;;;;5.93;3.55;;;23.40;53.80;;;;;;4880885;29;20116;-61
2021/07/23 01:40:49;;;;;;;5.75;3.17;;;23.40;53.80;;;;;;4880798;29;20061;-60
2021/07/23 01:43:15;;;;;;;6.03;3.40;;;23.40;53.90;;;;;;4880548;29;20025;-61
2021/07/23 01:45:42;;;;;;;5.45;3.00;;;23.30;53.90;;;;;;4880758;29;20100;-60
2021/07/23 01:48:07;;;;;;;5.55;3.00;;;23.40;53.90;;;;;;4880598;29;20434;-61
2021/07/23 01:50:33;;;;;;;5.63;3.22;;;23.30;53.90;;;;;;4880511;29;20033;-61
2021/07/23 01:52:59;;;;;;;4.80;2.97;;;23.40;53.90;;;;;;4880527;29;20035;-59
2021/07/23 01:55:24;;;;;;;6.05;3.35;;;23.30;53.80;;;;;;4880468;29;20073;-61
2021/07/23 01:57:50;;;;;;;5.55;3.25;;;23.30;53.90;;;;;;4880269;29;20040;-61
2021/07/23 02:00:16;;;;;;;6.28;3.22;;;23.30;53.90;;;;;;4880339;29;20085;-60
2021/07/23 02:02:41;;;;;;;5.68;3.08;;;23.30;53.90;;;;;;4880365;29;20044;-61
2021/07/23 02:05:07;;;;;;;6.50;3.30;;;23.30;53.90;;;;;;4880513;29;20025;-60
2021/07/23 02:07:33;;;;;;;5.53;3.00;;;23.30;54.00;;;;;;4884630;29;20040;-61
2021/07/23 02:10:00;;;;;;;6.20;3.28;;;23.20;53.90;;;;;;4885666;29;20043;-61
2021/07/23 02:12:26;;;;;;;5.00;2.90;;;23.30;53.90;;;;;;4884662;29;20041;-61
2021/07/23 02:14:51;;;;;;;5.82;3.47;;;23.20;54.00;;;;;;4880388;29;20032;-60
2021/07/23 02:17:17;;;;;;;5.55;3.10;;;23.20;54.00;;;;;;4880879;29;20033;-61
2021/07/23 02:19:42;;;;;;;5.38;2.75;;;23.20;54.00;;;;;;4880696;29;20129;-61
2021/07/23 02:22:08;;;;;;;6.28;3.30;;;23.20;54.00;;;;;;4881106;29;20032;-61
2021/07/23 02:24:34;;;;;;;7.25;3.33;;;23.20;54.00;;;;;;4879928;29;20031;-60
2021/07/23 02:26:59;;;;;;;5.20;3.08;;;23.20;54.10;;;;;;4879727;29;20040;-60
2021/07/23 02:29:25;;;;;;;5.90;3.08;;;23.20;54.00;;;;;;4879885;29;20037;-59
2021/07/23 02:31:51;;;;;;;5.32;3.17;;;23.20;54.00;;;;;;4879699;29;20124;-61
2021/07/23 02:34:16;;;;;;;5.28;2.88;;;23.10;54.10;;;;;;4879885;29;20104;-61
2021/07/23 02:36:42;;;;;;;4.70;2.80;;;23.20;54.10;;;;;;4879859;29;20036;-59
2021/07/23 02:39:08;;;;;;;6.35;3.00;;;23.10;54.10;;;;;;4879647;29;20025;-59
2021/07/23 02:41:33;;;;;;;4.63;2.65;;;23.10;54.10;;;;;;4879517;29;20040;-61
2021/07/23 02:43:59;;;;;;;4.80;2.70;;;23.10;54.10;;;;;;4879660;29;20029;-60
2021/07/23 02:46:24;;;;;;;6.70;3.30;;;23.10;54.20;;;;;;4879459;29;20512;-60
2021/07/23 02:48:50;;;;;;;5.93;3.05;;;23.10;54.20;;;;;;4879563;29;20080;-60
2021/07/23 02:51:16;;;;;;;5.40;2.95;;;23.10;54.20;;;;;;4879636;29;20033;-60
2021/07/23 02:53:41;;;;;;;5.43;3.13;;;23.10;54.20;;;;;;4879554;29;20442;-60
2021/07/23 02:56:07;;;;;;;5.80;2.85;;;23.00;54.20;;;;;;4879384;29;20506;-60
2021/07/23 02:58:40;;;;;;;5.82;3.08;;;23.00;54.30;;;;;;4879441;29;20173;-60
2021/07/23 03:01:09;;;;;;;5.05;2.80;;;23.00;54.30;;;;;;4879696;29;20037;-60
2021/07/23 03:03:35;;;;;;;5.40;2.85;;;23.00;54.30;;;;;;4879289;29;20049;-60
2021/07/23 03:06:01;;;;;;;6.00;3.10;;;23.00;54.30;;;;;;4879311;29;20025;-60
2021/07/23 03:08:27;;;;;;;4.63;2.95;;;23.00;54.40;;;;;;4879079;29;20036;-60
2021/07/23 03:10:53;;;;;;;5.75;3.00;;;23.00;54.30;;;;;;4879118;29;20040;-60
2021/07/23 03:13:18;;;;;;;4.78;2.60;;;23.00;54.30;;;;;;4879111;29;20021;-61
2021/07/23 03:15:44;;;;;;;5.35;3.05;;;22.90;54.40;;;;;;4879109;29;20112;-60
2021/07/23 03:18:09;;;;;;;4.97;2.90;;;22.90;54.40;;;;;;4879054;29;20025;-60
2021/07/23 03:20:38;;;;;;;5.63;3.15;;;22.90;54.40;;;;;;4878990;29;20041;-60
2021/07/23 03:23:04;;;;;;;5.75;2.92;;;22.90;54.40;;;;;;4878876;29;20040;-60
2021/07/23 03:25:30;;;;;;;5.13;3.10;;;22.90;54.40;;;;;;4879805;29;20041;-61
2021/07/23 03:27:56;;;;;;;6.25;3.00;;;22.90;54.40;;;;;;4882909;29;20064;-60
2021/07/23 03:30:21;;;;;;;4.72;2.67;;;22.90;54.40;;;;;;4882917;29;20037;-60
2021/07/23 03:32:47;;;;;;;4.85;2.90;;;22.90;54.50;;;;;;4882717;29;20181;-60
2021/07/23 03:35:12;;;;;;;4.95;2.85;;;22.80;54.50;;;;;;4882839;29;20105;-60
2021/07/23 03:37:38;;;;;;;5.95;3.30;;;22.90;54.50;;;;;;4882774;29;20041;-60
2021/07/23 03:40:05;;;;;;;4.35;2.67;;;22.90;54.50;;;;;;4882478;29;20048;-60
2021/07/23 03:42:32;;;;;;;5.18;2.70;;;22.80;54.50;;;;;;4882631;29;20037;-60
2021/07/23 03:44:58;;;;;;;5.78;2.95;;;22.90;54.50;;;;;;4882931;29;20037;-60
2021/07/23 03:47:23;;;;;;;5.25;2.60;;;22.80;54.50;;;;;;4882706;29;20101;-60
2021/07/23 03:49:48;;;;;;;5.05;2.58;;;22.80;54.50;;;;;;4882890;29;20534;-60
2021/07/23 03:52:14;;;;;;;5.70;3.17;;;22.80;54.50;;;;;;4882477;29;20124;-60
2021/07/23 03:54:39;;;;;;;4.38;2.60;;;22.80;54.50;;;;;;4882641;29;20033;-60
2021/07/23 03:57:05;;;;;;;5.47;2.90;;;22.70;54.50;;;;;;4882709;29;20064;-60
2021/07/23 03:59:35;;;;;;;4.85;2.70;;;22.80;54.50;;;;;;4882433;29;20036;-61
2021/07/23 04:02:01;;;;;;;4.93;3.00;;;22.80;54.50;;;;;;4882225;29;20040;-61
2021/07/23 04:04:27;;;;;;;6.45;3.17;;;22.70;54.60;;;;;;4889582;29;20037;-60
2021/07/23 04:06:56;;;;;;;5.45;3.00;;;22.70;54.60;;;;;;4882333;29;20104;-60
2021/07/23 04:09:22;;;;;;;4.53;2.97;;;22.70;54.60;;;;;;4882338;29;20036;-60
2021/07/23 04:11:52;;;;;;;4.82;2.78;;;22.70;54.60;;;;;;4882303;29;20040;-60
2021/07/23 04:14:17;;;;;;;4.63;2.55;;;22.70;54.70;;;;;;4882323;29;20021;-60
2021/07/23 04:16:43;;;;;;;6.25;2.90;;;22.70;54.70;;;;;;4882239;29;20047;-60
2021/07/23 04:19:09;;;;;;;4.63;2.33;;;22.70;54.70;;;;;;4882174;29;20025;-60
2021/07/23 04:21:34;;;;;;;5.55;3.10;;;22.70;54.70;;;;;;4882112;29;20375;-60
2021/07/23 04:24:00;;;;;;;5.47;2.67;;;22.70;54.60;;;;;;4882013;29;20051;-60
2021/07/23 04:26:25;;;;;;;4.55;2.65;;;22.70;54.70;;;;;;4881992;29;20121;-60
2021/07/23 04:28:51;;;;;;;4.63;2.70;;;22.70;54.70;;;;;;4882278;29;20029;-60
2021/07/23 04:31:17;;;;;;;5.22;2.80;;;22.70;54.60;;;;;;4881947;29;20057;-60
2021/07/23 04:33:43;;;;;;;5.50;3.08;;;22.70;54.70;;;;;;4881814;29;20037;-60
2021/07/23 04:36:08;;;;;;;4.95;2.70;;;22.70;54.60;;;;;;4881498;29;20029;-60
2021/07/23 04:38:34;;;;;;;4.93;2.83;;;22.70;54.70;;;;;;4881756;29;20032;-60
2021/07/23 04:40:59;;;;;;;5.75;2.78;;;22.60;54.60;;;;;;4881687;29;20021;-60
2021/07/23 04:43:25;;;;;;;7.13;3.03;;;22.60;54.70;;;;;;4881730;29;20033;-60
2021/07/23 04:45:50;;;;;;;4.30;2.63;;;22.60;54.70;;;;;;4881693;29;20647;-60
2021/07/23 04:48:15;;;;;;;4.35;2.47;;;22.60;54.70;;;;;;4881619;29;20037;-60
2021/07/23 04:50:41;;;;;;;5.25;2.70;;;22.60;54.60;;;;;;4881380;29;20082;-59
2021/07/23 04:53:06;;;;;;;4.30;2.58;;;22.60;54.70;;;;;;4881512;29;20060;-62
2021/07/23 04:55:34;;;;;;;5.32;2.88;;;22.60;54.60;;;;;;4881517;29;20029;-61
2021/07/23 04:57:59;;;;;;;4.70;2.53;;;22.60;54.60;;;;;;4881423;29;20036;-62
2021/07/23 05:00:25;;;;;;;5.07;2.75;;;22.60;54.60;;;;;;4881375;29;20021;-61
2021/07/23 05:02:54;;;;;;;5.82;2.75;;;22.60;54.60;;;;;;4880987;29;20088;-61
2021/07/23 05:05:21;;;;;;;4.75;2.75;;;22.60;54.70;;;;;;4881283;29;20029;-62
2021/07/23 05:07:47;;;;;;;5.80;2.80;;;22.60;54.60;;;;;;4881278;29;20017;-61
2021/07/23 05:10:12;;;;;;;6.50;2.83;;;22.60;54.70;;;;;;4881178;29;20081;-61
2021/07/23 05:12:39;;;;;;;4.50;2.38;;;22.60;54.60;;;;;;4881126;29;20032;-61
2021/07/23 05:15:06;;;;;;;4.55;2.50;;;22.60;54.60;;;;;;4881130;29;20053;-60
2021/07/23 05:17:32;;;;;;;4.88;2.38;;;22.50;54.70;;;;;;4880957;29;20479;-61
2021/07/23 05:20:00;;;;;;;4.90;2.40;;;22.60;54.70;;;;;;4881031;29;20044;-61
2021/07/23 05:22:26;;;;;;;5.75;2.55;;;22.50;54.70;;;;;;4880972;29;20033;-61
2021/07/23 05:24:52;;;;;;;4.93;2.65;;;22.60;54.70;;;;;;4879678;29;20077;-61
2021/07/23 05:27:17;;;;;;;3.65;2.38;;;22.50;54.60;;;;;;4880830;29;20033;-60
2021/07/23 05:29:43;;;;;;;5.60;2.70;;;22.60;54.60;;;;;;4880758;29;20080;-60
2021/07/23 05:32:08;;;;;;;4.60;2.60;;;22.50;54.70;;;;;;4879276;29;20477;-59
2021/07/23 05:34:34;;;;;;;6.00;2.60;;;22.60;54.60;;;;;;4880568;29;20041;-61
2021/07/23 05:36:59;;;;;;;15.25;2.60;;;22.60;54.60;;;;;;4880888;29;20114;-59
2021/07/23 05:39:25;;;;;;;4.30;2.55;;;22.60;54.60;;;;;;4880623;29;20025;-59
2021/07/23 05:41:50;;;;;;;5.43;2.90;;;22.60;54.60;;;;;;4880604;29;20028;-59
2021/07/23 05:44:16;;;;;;;5.07;2.70;;;22.50;54.60;;;;;;4880467;29;20109;-59
2021/07/23 05:46:41;;;;;;;4.35;2.45;;;22.50;54.60;;;;;;4880752;29;20033;-60
2021/07/23 05:49:06;;;;;;;4.43;2.45;;;22.60;54.60;;;;;;4879631;29;20061;-60
2021/07/23 05:51:32;;;;;;;4.55;2.45;;;22.50;54.60;;;;;;4880238;29;20434;-59
2021/07/23 05:53:57;;;;;;;4.93;2.63;;;22.60;54.60;;;;;;4880365;29;20043;-61
2021/07/23 05:56:23;;;;;;;5.07;2.40;;;22.60;54.60;;;;;;4880264;29;20029;-61
2021/07/23 05:58:48;;;;;;;5.30;2.47;;;22.60;54.50;;;;;;4880560;29;20104;-60
2021/07/23 06:01:14;;;;;;;4.93;2.58;;;22.60;54.50;;;;;;4881410;29;20363;-60
2021/07/23 06:03:40;;;;;;;6.95;2.58;;;22.60;54.40;;;;;;4879791;29;20053;-60
2021/07/23 06:06:05;;;;;;;4.43;2.42;;;22.60;54.50;;;;;;4879897;29;20040;-60
2021/07/23 06:08:31;;;;;;;5.63;2.38;;;22.60;54.50;;;;;;4879966;29;20116;-60
2021/07/23 06:11:03;;;;;;;4.07;2.22;;;22.60;54.50;;;;;;4879870;29;20029;-60
2021/07/23 06:13:28;;;;;;;5.50;2.60;;;22.60;54.50;;;;;;4880047;29;20040;-60
2021/07/23 06:15:54;;;;;;;5.25;2.28;;;22.60;54.40;;;;;;4879949;29;20028;-60
2021/07/23 06:18:19;;;;;;;4.53;2.60;;;22.60;54.40;;;;;;4879828;29;20037;-60
2021/07/23 06:20:45;;;;;;;4.25;2.65;;;22.60;54.40;;;;;;4879747;29;20033;-60
2021/07/23 06:23:10;;;;;;;4.60;2.38;;;22.70;54.30;;;;;;4880062;29;20037;-60
2021/07/23 06:25:36;;;;;;;5.80;2.60;;;22.70;54.10;;;;;;4879738;29;20382;-60
2021/07/23 06:28:01;;;;;;;4.57;2.35;;;22.70;54.30;;;;;;4879616;29;20048;-61
2021/07/23 06:30:27;;;;;;;5.20;2.58;;;22.70;54.20;;;;;;4879602;29;20025;-61
2021/07/23 06:32:52;;;;;;;4.97;2.42;;;22.70;54.30;;;;;;4879487;29;20120;-61
2021/07/23 06:35:18;;;;;;;5.20;2.80;;;22.70;54.20;;;;;;4879870;29;20021;-61
2021/07/23 06:37:43;;;;;;;4.22;2.40;;;22.70;54.20;;;;;;4879736;29;20029;-61
2021/07/23 06:40:09;;;;;;;4.15;2.45;;;22.70;54.10;;;;;;4879966;29;20021;-61
2021/07/23 06:42:36;;;;;;;4.72;2.42;;;22.80;54.00;;;;;;4879577;29;20029;-61
2021/07/23 06:45:02;;;;;;;4.10;2.17;;;22.80;53.90;;;;;;4879978;29;20516;-61
2021/07/23 06:47:28;;;;;;;4.85;2.53;;;22.80;53.90;;;;;;4883397;29;20097;-61
2021/07/23 06:49:53;;;;;;;5.57;2.80;;;22.80;53.90;;;;;;4889484;29;20065;-61
2021/07/23 06:52:19;;;;;;;4.88;2.50;;;22.90;53.90;;;;;;4880855;29;20085;-61
2021/07/23 06:54:47;;;;;;;4.07;2.50;;;22.80;53.90;;;;;;4880088;29;20025;-60
2021/07/23 06:57:13;;;;;;;3.83;2.25;;;22.80;53.90;;;;;;4879968;29;20120;-60
2021/07/23 06:59:38;;;;;;;4.47;2.60;;;22.80;53.90;;;;;;4879258;29;20533;-61
2021/07/23 07:02:04;;;;;;;3.83;1.98;;;22.80;53.90;;;;;;4879088;29;20428;-61
2021/07/23 07:04:30;;;;;;;4.90;2.40;;;22.90;53.80;;;;;;4879600;29;20085;-61
2021/07/23 07:06:56;;;;;;;6.07;2.50;;;22.90;53.80;;;;;;4880383;29;20064;-61
2021/07/23 07:09:26;;;;;;;4.43;2.35;;;22.90;53.80;;;;;;4880271;29;20073;-61
2021/07/23 07:11:52;;;;;;;4.50;2.42;;;22.90;53.80;;;;;;4880929;29;20603;-61
2021/07/23 07:14:18;;;;;;;4.30;2.20;;;22.90;53.70;;;;;;4880042;29;20036;-61
2021/07/23 07:16:44;;;;;;;4.57;2.35;;;22.90;53.70;;;;;;4879064;29;20385;-61
2021/07/23 07:19:10;;;;;;;4.65;2.30;;;22.90;53.70;;;;;;4879166;29;20025;-61
2021/07/23 07:21:35;;;;;;;4.65;2.63;;;22.90;53.70;;;;;;4879049;29;20434;-60
2021/07/23 07:24:01;;;;;;;4.68;2.42;;;22.90;53.60;;;;;;4879182;29;20553;-60
2021/07/23 07:26:28;;;;;;;4.65;2.15;;;22.90;53.60;;;;;;4879224;29;20390;-60
2021/07/23 07:28:54;;;;;;;6.15;2.63;;;22.90;53.60;;;;;;4878823;29;20069;-61
2021/07/23 07:31:19;;;;;;;4.07;2.35;;;22.90;53.60;;;;;;4879111;29;20037;-60
2021/07/23 07:33:45;;;;;;;4.95;2.20;;;23.00;53.50;;;;;;4879303;29;20108;-61
2021/07/23 07:36:17;;;;;;;4.72;2.50;;;23.00;53.50;;;;;;4879202;29;20033;-60
2021/07/23 07:38:44;;;;;;;5.75;2.65;;;22.90;53.50;;;;;;4879022;29;20021;-61
2021/07/23 07:41:10;;;;;;;3.88;2.40;;;23.00;53.50;;;;;;4878864;29;20058;-60
2021/07/23 07:43:35;;;;;;;4.45;2.30;;;23.00;53.50;;;;;;4878782;29;20041;-60
2021/07/23 07:46:01;;;;;;;4.78;2.17;;;23.00;53.40;;;;;;4878741;29;20061;-60
2021/07/23 07:48:26;;;;;;;3.85;2.00;;;23.00;53.40;;;;;;4878741;29;20062;-61
2021/07/23 07:50:52;;;;;;;3.88;2.17;;;23.00;53.40;;;;;;4879101;29;20050;-60
2021/07/23 07:53:17;;;;;;;4.50;2.42;;;23.00;53.40;;;;;;4878981;29;20407;-61
2021/07/23 07:55:43;;;;;;;4.07;2.00;;;23.00;53.40;;;;;;4878714;29;20057;-61
2021/07/23 07:58:09;;;;;;;3.78;2.28;;;23.00;53.40;;;;;;4878898;29;20029;-61
2021/07/23 08:00:34;;;;;;;5.93;2.28;;;23.00;53.30;;;;;;4878604;29;20037;-61
2021/07/23 08:03:00;;;;;;;4.72;2.45;;;23.00;53.30;;;;;;4878656;29;20124;-60
2021/07/23 08:05:25;;;;;;;3.60;1.80;;;23.00;53.30;;;;;;4878597;29;20028;-60
2021/07/23 08:07:56;;;;;;;5.05;2.70;;;23.00;53.30;;;;;;4878532;29;20033;-61
2021/07/23 08:10:24;;;;;;;3.55;2.10;;;23.00;53.40;;;;;;4878890;29;20477;-61
2021/07/23 08:12:50;;;;;;;4.97;2.60;;;23.00;53.30;;;;;;4881184;29;20037;-61
2021/07/23 08:15:16;;;;;;;3.80;2.28;;;23.00;53.30;;;;;;4882034;29;20025;-61
2021/07/23 08:17:42;;;;;;;5.63;2.40;;;23.00;53.30;;;;;;4882292;29;20040;-61
2021/07/23 08:20:09;;;;;;;4.00;2.17;;;23.00;53.20;;;;;;4882027;29;20025;-61
2021/07/23 08:22:34;;;;;;;4.47;1.90;;;23.00;53.20;;;;;;4881941;29;20044;-60
2021/07/23 08:25:00;;;;;;;4.32;2.15;;;23.10;53.30;;;;;;4882499;29;20029;-61
2021/07/23 08:27:27;;;;;;;3.10;1.92;;;23.10;53.20;;;;;;4881957;29;20029;-61
2021/07/23 08:29:53;;;;;;;3.65;2.08;;;23.10;53.20;;;;;;4881918;29;20029;-60
2021/07/23 08:32:18;;;;;;;3.17;2.10;;;23.10;53.20;;;;;;4881787;29;20066;-61
2021/07/23 08:34:44;;;;;;;4.47;2.10;;;23.10;53.20;;;;;;4881611;29;20029;-60
2021/07/23 08:37:10;;;;;;;3.85;2.30;;;23.10;53.20;;;;;;4881672;29;20033;-61
2021/07/23 08:39:36;;;;;;;5.38;2.38;;;23.10;53.20;;;;;;4880385;29;20029;-61
2021/07/23 08:42:27;;;;;;;3.50;2.10;;;23.10;53.20;;;;;;4881704;29;20033;-61
2021/07/23 08:44:54;;;;;;;4.43;2.17;;;23.10;53.30;;;;;;4881413;29;20212;-61
2021/07/23 08:47:20;;;;;;;5.00;2.10;;;23.10;53.30;;;;;;4881528;29;20036;-61
2021/07/23 08:49:46;;;;;;;4.53;2.20;;;23.10;53.20;;;;;;4881340;29;20069;-60
2021/07/23 08:52:12;;;;;;;4.90;2.15;;;23.10;53.20;;;;;;4881144;29;20041;-61
2021/07/23 08:54:38;;;;;;;3.70;2.10;;;23.10;53.20;;;;;;4881343;29;20032;-61
2021/07/23 08:57:06;;;;;;;3.50;1.95;;;23.10;53.20;;;;;;4881264;29;20307;-60
2021/07/23 08:59:32;;;;;;;4.05;2.22;;;23.10;53.20;;;;;;4881266;29;20025;-61
2021/07/23 09:01:59;;;;;;;4.88;2.40;;;23.10;53.20;;;;;;4881093;29;20063;-61
2021/07/23 09:04:29;;;;;;;3.78;2.08;;;23.10;53.10;;;;;;4880961;29;20101;-61
2021/07/23 09:07:20;;;;;;;4.78;1.90;;;23.20;53.20;;;;;;4881030;29;20504;-60
2021/07/23 09:10:04;;;;;;;3.53;2.15;;;23.20;53.20;;;;;;4880953;29;20033;-61
2021/07/23 09:12:46;;;;;;;3.85;1.95;;;23.10;53.20;;;;;;4880919;29;20120;-61
2021/07/23 09:15:23;;;;;;;2.80;1.67;;;23.20;53.20;;;;;;4881334;29;20049;-61
2021/07/23 09:17:50;;;;;;;4.07;2.33;;;23.20;53.10;;;;;;4880700;29;20044;-61
2021/07/23 09:20:19;;;;;;;3.72;2.05;;;23.20;53.20;;;;;;4880914;29;20029;-61
2021/07/23 09:22:53;;;;;;;4.25;2.10;;;23.10;53.20;;;;;;4880315;29;20033;-60
2021/07/23 09:25:36;;;;;;;3.85;2.10;;;23.20;53.20;;;;;;4880620;29;20132;-61
2021/07/23 09:28:18;;;;;;;4.28;2.13;;;23.10;53.10;;;;;;4880813;29;20033;-60
2021/07/23 09:30:43;;;;;;;5.30;2.28;;;23.20;53.10;;;;;;4882984;29;20049;-61
2021/07/23 09:33:12;;;;;;;3.17;1.90;;;23.10;53.10;;;;;;4886004;29;20126;-60
2021/07/23 09:35:54;;;;;;;3.83;2.33;;;23.20;53.10;;;;;;4881481;29;20029;-60
2021/07/23 09:38:24;;;;;;;4.05;2.00;;;23.20;53.10;;;;;;4880289;29;20112;-60
2021/07/23 09:40:52;;;;;;;3.55;2.17;;;23.20;53.10;;;;;;4880557;29;20239;-60
2021/07/23 09:43:38;;;;;;;3.35;2.08;;;23.20;53.10;;;;;;4880900;29;20029;-60
2021/07/23 09:46:18;;;;;;;4.57;2.00;;;23.20;53.10;;;;;;4879990;29;20394;-60
2021/07/23 09:48:44;;;;;;;4.28;2.30;;;23.20;53.10;;;;;;4880386;29;20465;-60
2021/07/23 09:51:11;;;;;;;3.85;2.00;;;23.20;53.10;;;;;;4880659;29;20141;-60
2021/07/23 09:53:36;;;;;;;4.97;2.10;;;23.20;53.10;;;;;;4880805;29;20044;-60
2021/07/23 09:56:07;;;;;;;3.55;1.90;;;23.20;53.10;;;;;;4880380;29;20473;-60
2021/07/23 09:58:44;;;;;;;4.55;2.03;;;23.20;53.10;;;;;;4880186;29;20028;-60
2021/07/23 10:01:14;;;;;;;3.63;2.03;;;23.20;53.10;;;;;;4878980;29;20388;-60
2021/07/23 10:03:43;;;;;;;4.45;2.10;;;23.20;53.00;;;;;;4880476;29;20048;-60
2021/07/23 10:06:13;;;;;;;3.08;1.88;;;23.20;53.00;;;;;;4879929;29;20029;-60
2021/07/23 10:08:40;;;;;;;3.08;1.95;;;23.20;53.10;;;;;;4880383;29;20052;-60
2021/07/23 10:11:10;;;;;;;4.45;2.20;;;23.30;53.00;;;;;;4880195;29;20093;-60
2021/07/23 10:13:39;;;;;;;4.03;2.25;;;23.20;53.00;;;;;;4880260;29;20037;-60
2021/07/23 10:16:11;;;;;;;4.05;2.05;;;23.30;53.10;;;;;;4879625;29;20066;-60
2021/07/23 10:18:38;;;;;;;3.95;1.90;;;23.30;53.00;;;;;;4880411;29;20051;-60
2021/07/23 10:21:05;;;;;;;4.03;2.22;;;23.30;53.00;;;;;;4880297;29;20029;-60
2021/07/23 10:23:32;;;;;;;3.95;2.22;;;23.30;53.00;;;;;;4880456;29;20426;-60
2021/07/23 10:26:00;;;;;;;4.32;2.00;;;23.30;52.90;;;;;;4879679;29;20060;-60
2021/07/23 10:28:40;;;;;;;3.95;2.10;;;23.30;52.90;;;;;;4879933;29;20064;-60
2021/07/23 10:31:22;;;;;;;4.30;1.90;;;23.30;53.00;;;;;;4879780;29;20497;-60
2021/07/23 10:33:51;;;;;;;3.58;1.80;;;23.40;52.90;;;;;;4879786;29;20029;-64
2021/07/23 10:36:26;;;;;;;3.75;1.90;;;23.40;52.90;;;;;;4879329;29;20025;-60
2021/07/23 10:39:06;;;;;;;4.82;2.30;;;23.40;52.90;;;;;;4880106;29;20028;-60
2021/07/23 10:41:39;;;;;;;3.78;2.28;;;23.40;52.90;;;;;;4879336;29;20041;-60
2021/07/23 10:44:29;;;;;;;3.92;2.10;;;23.40;52.90;;;;;;4880094;29;20029;-60
2021/07/23 10:46:56;;;;;;;3.47;1.92;;;23.40;52.90;;;;;;4876203;29;20485;-60
2021/07/23 10:49:30;;;;;;;3.95;2.10;;;23.40;52.80;;;;;;4879705;29;20097;-60
2021/07/23 10:51:58;;;;;;;4.38;2.05;;;23.50;52.90;;;;;;4879494;29;20097;-61
2021/07/23 10:54:32;;;;;;;3.15;1.80;;;23.40;52.80;;;;;;4880629;29;20449;-60
2021/07/23 10:57:00;;;;;;;4.87;2.10;;;23.40;52.90;;;;;;4881142;29;20029;-60
2021/07/23 10:59:41;;;;;;;5.20;2.33;;;23.50;52.90;;;;;;4879887;29;20277;-60
2021/07/23 11:02:27;;;;;;;5.85;2.38;;;23.50;52.80;;;;;;4879726;29;20068;-60
2021/07/23 11:05:07;;;;;;;3.30;1.95;;;23.50;52.80;;;;;;4878390;29;20088;-60
2021/07/23 11:07:32;;;;;;;3.72;2.00;;;23.50;52.80;;;;;;4879323;29;20033;-60
2021/07/23 11:09:58;;;;;;;3.63;1.80;;;23.50;52.80;;;;;;4879193;29;20029;-60
2021/07/23 11:12:31;;;;;;;4.40;2.03;;;23.50;52.70;;;;;;4879200;29;20041;-60
2021/07/23 11:15:00;;;;;;;3.88;2.05;;;23.50;52.70;;;;;;4879087;29;20049;-59
2021/07/23 11:17:27;;;;;;;5.63;2.00;;;23.50;52.70;;;;;;4878992;29;20032;-59
2021/07/23 11:19:59;;;;;;;3.05;1.95;;;23.50;52.70;;;;;;4878043;29;20117;-60
2021/07/23 11:22:30;;;;;;;4.60;2.20;;;23.60;52.70;;;;;;4879473;29;20478;-60
2021/07/23 11:24:56;;;;;;;3.42;2.03;;;23.60;52.70;;;;;;4879040;29;20492;-60
2021/07/23 11:27:29;;;;;;;3.28;1.80;;;23.60;52.60;;;;;;4879165;29;20033;-60
2021/07/23 11:29:56;;;;;;;3.47;2.15;;;23.60;52.60;;;;;;4879384;29;20033;-60
2021/07/23 11:32:22;;;;;;;3.70;1.98;;;23.60;52.60;;;;;;4879652;29;20077;-60
2021/07/23 11:35:01;;;;;;;3.65;2.28;;;23.70;52.60;;;;;;4879024;29;20211;-60
2021/07/23 11:37:26;;;;;;;3.47;2.03;;;23.70;52.60;;;;;;4878995;29;20031;-60
2021/07/23 11:40:00;;;;;;;4.63;2.10;;;23.70;52.50;;;;;;4878885;29;20386;-60
2021/07/23 11:42:27;;;;;;;3.78;1.98;;;23.70;52.50;;;;;;4879021;29;20025;-60
2021/07/23 11:44:54;;;;;;;3.83;1.83;;;23.80;52.40;;;;;;4878848;29;20033;-59
2021/07/23 11:47:29;;;;;;;4.38;2.13;;;23.80;52.40;;;;;;4880879;29;20453;-60
2021/07/23 11:49:56;;;;;;;3.15;2.05;;;23.80;52.40;;;;;;4882533;29;20021;-60
2021/07/23 11:52:23;;;;;;;4.13;2.22;;;23.80;52.40;;;;;;4882504;29;20388;-60
2021/07/23 11:54:59;;;;;;;3.10;1.83;;;23.90;52.30;;;;;;4882640;29;20100;-60
2021/07/23 11:57:26;;;;;;;3.75;1.95;;;23.90;52.30;;;;;;4882748;29;20049;-60
2021/07/23 11:59:52;;;;;;;3.40;1.88;;;23.90;52.30;;;;;;4882177;29;20027;-61
2021/07/23 12:02:18;;;;;;;4.68;2.35;;;23.90;52.20;;;;;;4881881;29;20115;-60
2021/07/23 12:04:44;;;;;;;3.40;1.70;;;23.90;52.20;;;;;;4882202;29;20409;-59
2021/07/23 12:07:15;;;;;;;4.72;2.10;;;24.00;52.20;;;;;;4882286;29;20035;-61
2021/07/23 12:09:41;;;;;;;3.45;2.20;;;24.00;52.10;;;;;;4882430;29;20045;-62
2021/07/23 12:12:07;;;;;;;3.58;2.10;;;24.10;52.00;;;;;;4882155;29;20398;-61
2021/07/23 12:14:32;;;;;;;3.60;1.92;;;24.10;52.10;;;;;;4882229;29;20108;-61
2021/07/23 12:16:58;;;;;;;3.45;1.83;;;24.10;52.00;;;;;;4881976;29;20453;-61
2021/07/23 12:19:24;;;;;;;3.90;2.13;;;24.20;52.00;;;;;;4881967;29;20081;-61
2021/07/23 12:21:49;;;;;;;3.78;1.98;;;24.20;51.90;;;;;;4881945;29;20027;-61
2021/07/23 12:24:15;;;;;;;3.63;1.70;;;24.20;51.90;;;;;;4881839;29;20477;-60
2021/07/23 12:26:41;;;;;;;2.80;1.88;;;24.30;51.90;;;;;;4881744;29;20049;-61
2021/07/23 12:29:14;;;;;;;3.13;1.90;;;24.30;51.80;;;;;;4880535;29;20033;-61
2021/07/23 12:31:40;;;;;;;3.10;1.83;;;24.30;51.80;;;;;;4881957;29;20032;-61
2021/07/23 12:34:10;;;;;;;3.33;2.03;;;24.40;51.70;;;;;;4881728;29;20032;-61
2021/07/23 12:36:46;;;;;;;3.55;2.13;;;24.40;51.70;;;;;;4881650;29;20088;-61
2021/07/23 12:39:12;;;;;;;2.63;1.80;;;24.50;51.70;;;;;;4881717;29;20032;-61
2021/07/23 12:41:40;;;;;;;3.40;1.90;;;24.50;51.60;;;;;;4881464;29;20017;-61
2021/07/23 12:44:08;;;;;;;3.20;1.80;;;24.50;51.60;;;;;;4881686;29;20107;-61
2021/07/23 12:46:34;;;;;;;3.95;2.45;;;24.60;51.50;;;;;;4881309;29;20021;-61
2021/07/23 12:49:08;;;;;;;2.45;1.70;;;24.60;51.40;;;;;;4881250;29;20532;-61